OFF Airport (Offutt Afb) Information

FAA: OFF - ICAO: KOFF

OFF Airport Location

State Nebraska
County Sarpy
City Omaha
OFF Airport is 8 miles southeast of Omaha, NE.
Latitude 41-07-09.5800N
Longitude 095-54-30.6700W
Elevation 1,048ft

KOFF Airport METARs

METAR KOFF 181156Z 15003KT 10SM BKN230 M03/M04 A2974 RMK AO2A SLP086 T10331040 11009 21033 55010 PWINO PNO FZRANO TSNO VISNO RWY12 CHINO RWY12 $
Altimeter 29.74"
Temperature -3.3°C (26.1°F)
Wind 150° at 3KT
Clouds broken at 23,000ft
Visibility 10.0mi
Time observed: 2022-01-18T11:56:00Z

OFF Airport Details

Status Operational
Activation May 1941
Ownership Military - Air Force
Usage Private
Chart OMAHA
ATC on-site Yes
Beacon schedule sunset-sunrise
Beacon color clear green

OFF Airport Contacts

Owner USAF
Owner address 3902D AIR BASE WING/SAC/, OFFUTT AFB, OMAHA, NE 68113
Owner phone N/A
Manager N/A
Manager address N/A, N/A
Manager phone N/A

OFF Airport (Offutt Afb) Radio Frequencies

OFF (Airport) Radio Frequencies

UNICOM N/A
Common traffic advisory frequency (CTAF) N/A